sensor_id;sensor_type;location;lat;lon;timestamp;P1;durP1;ratioP1;P2;durP2;ratioP2
74808;SDS011;63338;39.544;2.596;2023-07-13T00:01:50;21.92;;;6.45;;
74808;SDS011;63338;39.544;2.596;2023-07-13T00:04:18;25.70;;;6.63;;
74808;SDS011;63338;39.544;2.596;2023-07-13T00:06:47;21.67;;;6.68;;
74808;SDS011;63338;39.544;2.596;2023-07-13T00:09:14;23.35;;;6.60;;
74808;SDS011;63338;39.544;2.596;2023-07-13T00:11:41;23.95;;;7.18;;
74808;SDS011;63338;39.544;2.596;2023-07-13T00:14:08;30.25;;;6.65;;
74808;SDS011;63338;39.544;2.596;2023-07-13T00:16:36;24.17;;;6.47;;
74808;SDS011;63338;39.544;2.596;2023-07-13T00:19:03;23.38;;;5.95;;
74808;SDS011;63338;39.544;2.596;2023-07-13T00:21:30;19.80;;;6.25;;
74808;SDS011;63338;39.544;2.596;2023-07-13T00:23:57;25.63;;;6.45;;
74808;SDS011;63338;39.544;2.596;2023-07-13T00:26:26;24.77;;;6.75;;
74808;SDS011;63338;39.544;2.596;2023-07-13T00:28:52;28.58;;;7.75;;
74808;SDS011;63338;39.544;2.596;2023-07-13T00:31:18;25.95;;;6.95;;
74808;SDS011;63338;39.544;2.596;2023-07-13T00:33:45;23.75;;;6.93;;
74808;SDS011;63338;39.544;2.596;2023-07-13T00:36:11;26.85;;;6.50;;
74808;SDS011;63338;39.544;2.596;2023-07-13T00:38:38;22.00;;;6.43;;
74808;SDS011;63338;39.544;2.596;2023-07-13T00:41:04;22.83;;;6.40;;
74808;SDS011;63338;39.544;2.596;2023-07-13T00:43:31;21.60;;;6.75;;
74808;SDS011;63338;39.544;2.596;2023-07-13T00:48:51;22.60;;;6.43;;
74808;SDS011;63338;39.544;2.596;2023-07-13T00:51:22;25.35;;;6.45;;
74808;SDS011;63338;39.544;2.596;2023-07-13T00:53:53;21.17;;;6.05;;
74808;SDS011;63338;39.544;2.596;2023-07-13T00:56:22;19.65;;;5.82;;
74808;SDS011;63338;39.544;2.596;2023-07-13T00:58:49;21.45;;;6.63;;
74808;SDS011;63338;39.544;2.596;2023-07-13T01:01:15;29.35;;;6.97;;
74808;SDS011;63338;39.544;2.596;2023-07-13T01:03:41;19.52;;;5.78;;
74808;SDS011;63338;39.544;2.596;2023-07-13T01:06:08;23.98;;;6.63;;
74808;SDS011;63338;39.544;2.596;2023-07-13T01:08:34;22.85;;;6.25;;
74808;SDS011;63338;39.544;2.596;2023-07-13T01:11:00;19.30;;;6.50;;
74808;SDS011;63338;39.544;2.596;2023-07-13T01:13:27;25.60;;;6.00;;
74808;SDS011;63338;39.544;2.596;2023-07-13T01:15:55;21.35;;;6.22;;
74808;SDS011;63338;39.544;2.596;2023-07-13T01:18:27;22.17;;;6.10;;
74808;SDS011;63338;39.544;2.596;2023-07-13T01:20:58;22.75;;;6.20;;
74808;SDS011;63338;39.544;2.596;2023-07-13T01:23:26;22.83;;;6.53;;
74808;SDS011;63338;39.544;2.596;2023-07-13T01:25:54;25.45;;;6.43;;
74808;SDS011;63338;39.544;2.596;2023-07-13T01:28:20;23.70;;;7.05;;
74808;SDS011;63338;39.544;2.596;2023-07-13T01:30:47;27.80;;;6.25;;
74808;SDS011;63338;39.544;2.596;2023-07-13T01:33:14;21.08;;;5.95;;
74808;SDS011;63338;39.544;2.596;2023-07-13T01:35:42;20.27;;;6.18;;
74808;SDS011;63338;39.544;2.596;2023-07-13T01:38:17;24.67;;;7.00;;
74808;SDS011;63338;39.544;2.596;2023-07-13T01:40:45;30.05;;;8.15;;
74808;SDS011;63338;39.544;2.596;2023-07-13T01:43:12;25.27;;;8.38;;
74808;SDS011;63338;39.544;2.596;2023-07-13T01:45:38;25.88;;;8.63;;
74808;SDS011;63338;39.544;2.596;2023-07-13T01:48:04;22.00;;;7.68;;
74808;SDS011;63338;39.544;2.596;2023-07-13T01:50:32;25.52;;;6.57;;
74808;SDS011;63338;39.544;2.596;2023-07-13T01:52:59;20.38;;;6.20;;
74808;SDS011;63338;39.544;2.596;2023-07-13T01:55:26;21.48;;;6.43;;
74808;SDS011;63338;39.544;2.596;2023-07-13T01:57:54;22.77;;;6.47;;
74808;SDS011;63338;39.544;2.596;2023-07-13T02:00:23;24.45;;;6.93;;
74808;SDS011;63338;39.544;2.596;2023-07-13T02:02:50;17.55;;;6.57;;
74808;SDS011;63338;39.544;2.596;2023-07-13T02:05:17;20.52;;;6.53;;
74808;SDS011;63338;39.544;2.596;2023-07-13T02:07:43;28.00;;;7.03;;
74808;SDS011;63338;39.544;2.596;2023-07-13T02:10:10;24.58;;;7.28;;
74808;SDS011;63338;39.544;2.596;2023-07-13T02:12:37;20.58;;;6.43;;
74808;SDS011;63338;39.544;2.596;2023-07-13T02:15:04;21.92;;;6.95;;
74808;SDS011;63338;39.544;2.596;2023-07-13T02:17:31;22.33;;;6.63;;
74808;SDS011;63338;39.544;2.596;2023-07-13T02:19:58;21.08;;;6.53;;
74808;SDS011;63338;39.544;2.596;2023-07-13T02:22:24;26.08;;;6.72;;
74808;SDS011;63338;39.544;2.596;2023-07-13T02:24:50;27.08;;;6.15;;
74808;SDS011;63338;39.544;2.596;2023-07-13T02:27:16;18.90;;;5.65;;
74808;SDS011;63338;39.544;2.596;2023-07-13T02:29:42;23.58;;;6.53;;
74808;SDS011;63338;39.544;2.596;2023-07-13T02:32:08;26.17;;;5.97;;
74808;SDS011;63338;39.544;2.596;2023-07-13T02:34:35;21.10;;;6.30;;
74808;SDS011;63338;39.544;2.596;2023-07-13T02:37:02;17.27;;;5.80;;
74808;SDS011;63338;39.544;2.596;2023-07-13T02:39:31;18.20;;;5.68;;
74808;SDS011;63338;39.544;2.596;2023-07-13T02:41:58;21.77;;;6.30;;
74808;SDS011;63338;39.544;2.596;2023-07-13T02:44:26;19.52;;;5.65;;
74808;SDS011;63338;39.544;2.596;2023-07-13T02:46:59;21.05;;;6.07;;
74808;SDS011;63338;39.544;2.596;2023-07-13T02:49:29;17.15;;;4.85;;
74808;SDS011;63338;39.544;2.596;2023-07-13T02:51:56;17.73;;;4.97;;
74808;SDS011;63338;39.544;2.596;2023-07-13T02:54:22;14.30;;;4.15;;
74808;SDS011;63338;39.544;2.596;2023-07-13T02:56:48;18.42;;;4.93;;
74808;SDS011;63338;39.544;2.596;2023-07-13T02:59:14;18.80;;;4.22;;
74808;SDS011;63338;39.544;2.596;2023-07-13T03:01:40;20.08;;;4.32;;
74808;SDS011;63338;39.544;2.596;2023-07-13T03:04:06;21.77;;;4.75;;
74808;SDS011;63338;39.544;2.596;2023-07-13T03:06:32;16.13;;;4.47;;
74808;SDS011;63338;39.544;2.596;2023-07-13T03:09:01;13.60;;;3.40;;
74808;SDS011;63338;39.544;2.596;2023-07-13T03:11:29;24.02;;;4.57;;
74808;SDS011;63338;39.544;2.596;2023-07-13T03:13:55;13.65;;;3.22;;
74808;SDS011;63338;39.544;2.596;2023-07-13T03:16:25;12.43;;;3.20;;
74808;SDS011;63338;39.544;2.596;2023-07-13T03:18:51;11.40;;;3.22;;
74808;SDS011;63338;39.544;2.596;2023-07-13T03:21:17;16.50;;;3.45;;
74808;SDS011;63338;39.544;2.596;2023-07-13T03:23:43;15.73;;;3.85;;
74808;SDS011;63338;39.544;2.596;2023-07-13T03:26:11;12.48;;;2.90;;
74808;SDS011;63338;39.544;2.596;2023-07-13T03:28:43;10.57;;;2.95;;
74808;SDS011;63338;39.544;2.596;2023-07-13T03:31:11;18.27;;;3.42;;
74808;SDS011;63338;39.544;2.596;2023-07-13T03:33:40;10.85;;;2.92;;
74808;SDS011;63338;39.544;2.596;2023-07-13T03:36:06;14.85;;;2.80;;
74808;SDS011;63338;39.544;2.596;2023-07-13T03:38:33;14.48;;;3.20;;
74808;SDS011;63338;39.544;2.596;2023-07-13T03:41:00;13.45;;;3.72;;
74808;SDS011;63338;39.544;2.596;2023-07-13T03:43:26;11.43;;;2.78;;
74808;SDS011;63338;39.544;2.596;2023-07-13T03:45:52;9.57;;;2.88;;
74808;SDS011;63338;39.544;2.596;2023-07-13T03:48:18;12.73;;;3.00;;
74808;SDS011;63338;39.544;2.596;2023-07-13T03:50:44;12.63;;;2.80;;
74808;SDS011;63338;39.544;2.596;2023-07-13T03:53:10;13.25;;;2.65;;
74808;SDS011;63338;39.544;2.596;2023-07-13T03:55:36;12.93;;;2.83;;
74808;SDS011;63338;39.544;2.596;2023-07-13T03:58:48;9.27;;;2.33;;
74808;SDS011;63338;39.544;2.596;2023-07-13T04:01:09;10.77;;;2.70;;
74808;SDS011;63338;39.544;2.596;2023-07-13T04:03:36;14.02;;;2.92;;
74808;SDS011;63338;39.544;2.596;2023-07-13T04:06:04;11.93;;;2.55;;
74808;SDS011;63338;39.544;2.596;2023-07-13T04:08:33;12.02;;;2.60;;
74808;SDS011;63338;39.544;2.596;2023-07-13T04:11:01;19.33;;;3.22;;
74808;SDS011;63338;39.544;2.596;2023-07-13T04:13:28;9.90;;;2.78;;
74808;SDS011;63338;39.544;2.596;2023-07-13T04:15:54;9.98;;;2.95;;
74808;SDS011;63338;39.544;2.596;2023-07-13T04:18:23;18.65;;;2.92;;
74808;SDS011;63338;39.544;2.596;2023-07-13T04:20:49;14.77;;;2.80;;
74808;SDS011;63338;39.544;2.596;2023-07-13T04:23:16;13.25;;;2.88;;
74808;SDS011;63338;39.544;2.596;2023-07-13T04:25:46;15.43;;;3.53;;
74808;SDS011;63338;39.544;2.596;2023-07-13T04:28:15;12.93;;;2.58;;
74808;SDS011;63338;39.544;2.596;2023-07-13T04:30:43;10.90;;;2.47;;
74808;SDS011;63338;39.544;2.596;2023-07-13T04:33:09;11.50;;;2.45;;
74808;SDS011;63338;39.544;2.596;2023-07-13T04:35:35;8.52;;;2.33;;
74808;SDS011;63338;39.544;2.596;2023-07-13T04:38:02;9.63;;;2.45;;
74808;SDS011;63338;39.544;2.596;2023-07-13T04:40:29;12.68;;;2.42;;
74808;SDS011;63338;39.544;2.596;2023-07-13T04:42:55;14.50;;;2.42;;
74808;SDS011;63338;39.544;2.596;2023-07-13T04:45:24;11.02;;;2.35;;
74808;SDS011;63338;39.544;2.596;2023-07-13T04:47:50;13.50;;;2.28;;
74808;SDS011;63338;39.544;2.596;2023-07-13T04:50:18;13.35;;;2.80;;
74808;SDS011;63338;39.544;2.596;2023-07-13T04:52:51;11.90;;;2.40;;
74808;SDS011;63338;39.544;2.596;2023-07-13T04:55:18;10.95;;;2.50;;
74808;SDS011;63338;39.544;2.596;2023-07-13T04:57:45;14.80;;;3.05;;
74808;SDS011;63338;39.544;2.596;2023-07-13T05:00:12;11.70;;;2.38;;
74808;SDS011;63338;39.544;2.596;2023-07-13T05:02:42;9.05;;;2.40;;
74808;SDS011;63338;39.544;2.596;2023-07-13T05:05:10;8.80;;;2.08;;
74808;SDS011;63338;39.544;2.596;2023-07-13T05:07:36;8.70;;;2.25;;
74808;SDS011;63338;39.544;2.596;2023-07-13T05:10:02;17.15;;;2.53;;
74808;SDS011;63338;39.544;2.596;2023-07-13T05:12:29;12.60;;;2.28;;
74808;SDS011;63338;39.544;2.596;2023-07-13T05:14:56;9.38;;;2.47;;
74808;SDS011;63338;39.544;2.596;2023-07-13T05:17:22;11.57;;;2.13;;
74808;SDS011;63338;39.544;2.596;2023-07-13T05:19:48;12.18;;;2.80;;
74808;SDS011;63338;39.544;2.596;2023-07-13T05:22:17;19.05;;;2.70;;
74808;SDS011;63338;39.544;2.596;2023-07-13T05:24:43;9.65;;;2.30;;
74808;SDS011;63338;39.544;2.596;2023-07-13T05:27:09;10.05;;;2.30;;
74808;SDS011;63338;39.544;2.596;2023-07-13T05:29:36;10.73;;;2.58;;
74808;SDS011;63338;39.544;2.596;2023-07-13T05:32:02;10.95;;;2.33;;
74808;SDS011;63338;39.544;2.596;2023-07-13T05:34:29;17.33;;;3.13;;
74808;SDS011;63338;39.544;2.596;2023-07-13T05:36:55;14.07;;;2.50;;
74808;SDS011;63338;39.544;2.596;2023-07-13T05:39:21;17.75;;;2.80;;
74808;SDS011;63338;39.544;2.596;2023-07-13T05:41:53;12.52;;;2.47;;
74808;SDS011;63338;39.544;2.596;2023-07-13T05:44:22;16.25;;;2.70;;
74808;SDS011;63338;39.544;2.596;2023-07-13T05:46:48;12.55;;;2.50;;
74808;SDS011;63338;39.544;2.596;2023-07-13T05:49:14;14.55;;;2.58;;
74808;SDS011;63338;39.544;2.596;2023-07-13T05:51:41;7.97;;;2.05;;
74808;SDS011;63338;39.544;2.596;2023-07-13T05:54:07;13.15;;;2.00;;
74808;SDS011;63338;39.544;2.596;2023-07-13T05:56:33;17.20;;;2.63;;
74808;SDS011;63338;39.544;2.596;2023-07-13T05:58:59;12.43;;;2.45;;
74808;SDS011;63338;39.544;2.596;2023-07-13T06:01:26;17.98;;;2.50;;
74808;SDS011;63338;39.544;2.596;2023-07-13T06:03:53;10.93;;;2.40;;
74808;SDS011;63338;39.544;2.596;2023-07-13T06:06:19;13.35;;;2.25;;
74808;SDS011;63338;39.544;2.596;2023-07-13T06:08:45;11.23;;;2.25;;
74808;SDS011;63338;39.544;2.596;2023-07-13T06:11:14;15.77;;;2.28;;
74808;SDS011;63338;39.544;2.596;2023-07-13T06:13:45;13.18;;;2.60;;
74808;SDS011;63338;39.544;2.596;2023-07-13T06:16:11;17.45;;;2.53;;
74808;SDS011;63338;39.544;2.596;2023-07-13T06:18:38;13.43;;;2.30;;
74808;SDS011;63338;39.544;2.596;2023-07-13T06:21:06;15.55;;;2.97;;
74808;SDS011;63338;39.544;2.596;2023-07-13T06:23:33;10.52;;;2.65;;
74808;SDS011;63338;39.544;2.596;2023-07-13T06:25:59;10.80;;;2.67;;
74808;SDS011;63338;39.544;2.596;2023-07-13T06:28:26;15.85;;;2.88;;
74808;SDS011;63338;39.544;2.596;2023-07-13T06:30:55;12.52;;;2.58;;
74808;SDS011;63338;39.544;2.596;2023-07-13T06:33:21;10.23;;;2.40;;
74808;SDS011;63338;39.544;2.596;2023-07-13T06:35:53;14.15;;;2.85;;
74808;SDS011;63338;39.544;2.596;2023-07-13T06:38:32;10.48;;;2.53;;
74808;SDS011;63338;39.544;2.596;2023-07-13T06:40:58;9.77;;;2.38;;
74808;SDS011;63338;39.544;2.596;2023-07-13T06:43:24;10.23;;;2.47;;
74808;SDS011;63338;39.544;2.596;2023-07-13T06:45:51;18.55;;;2.65;;
74808;SDS011;63338;39.544;2.596;2023-07-13T06:48:21;14.60;;;2.38;;
74808;SDS011;63338;39.544;2.596;2023-07-13T06:50:48;10.77;;;2.28;;
74808;SDS011;63338;39.544;2.596;2023-07-13T06:53:18;16.23;;;2.50;;
74808;SDS011;63338;39.544;2.596;2023-07-13T06:55:48;16.05;;;2.97;;
74808;SDS011;63338;39.544;2.596;2023-07-13T06:58:16;15.73;;;2.60;;
74808;SDS011;63338;39.544;2.596;2023-07-13T07:00:44;12.55;;;2.47;;
74808;SDS011;63338;39.544;2.596;2023-07-13T07:03:10;13.85;;;2.72;;
74808;SDS011;63338;39.544;2.596;2023-07-13T07:05:36;11.27;;;2.67;;
74808;SDS011;63338;39.544;2.596;2023-07-13T07:08:02;10.35;;;2.60;;
74808;SDS011;63338;39.544;2.596;2023-07-13T07:10:29;16.35;;;2.90;;
74808;SDS011;63338;39.544;2.596;2023-07-13T07:12:56;10.45;;;2.45;;
74808;SDS011;63338;39.544;2.596;2023-07-13T07:15:24;12.32;;;2.67;;
74808;SDS011;63338;39.544;2.596;2023-07-13T07:17:51;13.05;;;3.15;;
74808;SDS011;63338;39.544;2.596;2023-07-13T07:20:18;13.85;;;2.90;;
74808;SDS011;63338;39.544;2.596;2023-07-13T07:22:47;15.75;;;3.03;;
74808;SDS011;63338;39.544;2.596;2023-07-13T07:25:20;11.18;;;2.80;;
74808;SDS011;63338;39.544;2.596;2023-07-13T07:28:12;14.35;;;3.00;;
74808;SDS011;63338;39.544;2.596;2023-07-13T07:30:43;14.05;;;2.45;;
74808;SDS011;63338;39.544;2.596;2023-07-13T07:33:10;11.40;;;2.50;;
74808;SDS011;63338;39.544;2.596;2023-07-13T07:35:38;20.90;;;2.90;;
74808;SDS011;63338;39.544;2.596;2023-07-13T07:38:04;13.32;;;2.92;;
74808;SDS011;63338;39.544;2.596;2023-07-13T07:40:30;14.20;;;2.72;;
74808;SDS011;63338;39.544;2.596;2023-07-13T07:42:57;13.00;;;2.10;;
74808;SDS011;63338;39.544;2.596;2023-07-13T07:45:23;10.50;;;2.47;;
74808;SDS011;63338;39.544;2.596;2023-07-13T07:47:52;12.45;;;2.53;;
74808;SDS011;63338;39.544;2.596;2023-07-13T07:50:23;10.13;;;2.40;;
74808;SDS011;63338;39.544;2.596;2023-07-13T07:52:49;12.13;;;2.80;;
74808;SDS011;63338;39.544;2.596;2023-07-13T07:55:16;14.85;;;2.78;;
74808;SDS011;63338;39.544;2.596;2023-07-13T07:57:43;12.88;;;2.78;;
74808;SDS011;63338;39.544;2.596;2023-07-13T08:00:09;8.30;;;2.42;;
74808;SDS011;63338;39.544;2.596;2023-07-13T08:02:36;11.82;;;3.00;;
74808;SDS011;63338;39.544;2.596;2023-07-13T08:05:02;13.18;;;2.90;;
74808;SDS011;63338;39.544;2.596;2023-07-13T08:07:30;14.20;;;2.92;;
74808;SDS011;63338;39.544;2.596;2023-07-13T08:09:56;15.00;;;3.13;;
74808;SDS011;63338;39.544;2.596;2023-07-13T08:12:22;14.80;;;3.25;;
74808;SDS011;63338;39.544;2.596;2023-07-13T08:14:52;13.60;;;3.00;;
74808;SDS011;63338;39.544;2.596;2023-07-13T08:17:23;15.38;;;2.63;;
74808;SDS011;63338;39.544;2.596;2023-07-13T08:19:52;11.73;;;2.65;;
74808;SDS011;63338;39.544;2.596;2023-07-13T08:22:18;15.27;;;2.58;;
74808;SDS011;63338;39.544;2.596;2023-07-13T08:24:53;9.73;;;2.38;;
74808;SDS011;63338;39.544;2.596;2023-07-13T08:27:24;12.38;;;2.47;;
74808;SDS011;63338;39.544;2.596;2023-07-13T08:29:52;10.25;;;2.20;;
74808;SDS011;63338;39.544;2.596;2023-07-13T08:32:19;14.13;;;2.85;;
74808;SDS011;63338;39.544;2.596;2023-07-13T08:34:46;11.75;;;2.30;;
74808;SDS011;63338;39.544;2.596;2023-07-13T08:37:15;13.27;;;2.25;;
74808;SDS011;63338;39.544;2.596;2023-07-13T08:39:42;17.83;;;2.95;;
74808;SDS011;63338;39.544;2.596;2023-07-13T08:44:55;7.88;;;2.35;;
74808;SDS011;63338;39.544;2.596;2023-07-13T08:47:32;12.05;;;2.28;;
74808;SDS011;63338;39.544;2.596;2023-07-13T08:50:03;11.98;;;2.25;;
74808;SDS011;63338;39.544;2.596;2023-07-13T08:52:35;10.98;;;2.00;;
74808;SDS011;63338;39.544;2.596;2023-07-13T09:01:14;11.07;;;2.20;;
74808;SDS011;63338;39.544;2.596;2023-07-13T09:04:23;8.23;;;1.85;;
74808;SDS011;63338;39.544;2.596;2023-07-13T09:12:19;9.05;;;2.10;;
74808;SDS011;63338;39.544;2.596;2023-07-13T09:15:24;8.70;;;2.17;;
74808;SDS011;63338;39.544;2.596;2023-07-13T09:17:59;9.85;;;1.90;;
74808;SDS011;63338;39.544;2.596;2023-07-13T09:20:36;11.30;;;1.65;;
74808;SDS011;63338;39.544;2.596;2023-07-13T09:23:11;8.82;;;1.88;;
74808;SDS011;63338;39.544;2.596;2023-07-13T09:25:40;7.80;;;2.10;;
74808;SDS011;63338;39.544;2.596;2023-07-13T09:28:19;9.25;;;2.30;;
74808;SDS011;63338;39.544;2.596;2023-07-13T09:31:06;12.90;;;2.17;;
74808;SDS011;63338;39.544;2.596;2023-07-13T09:33:39;7.32;;;1.75;;
74808;SDS011;63338;39.544;2.596;2023-07-13T09:39:25;9.00;;;2.10;;
74808;SDS011;63338;39.544;2.596;2023-07-13T09:42:11;10.57;;;1.95;;
74808;SDS011;63338;39.544;2.596;2023-07-13T09:47:28;12.15;;;2.50;;
74808;SDS011;63338;39.544;2.596;2023-07-13T09:49:58;13.43;;;2.05;;
74808;SDS011;63338;39.544;2.596;2023-07-13T09:55:55;9.63;;;1.85;;
74808;SDS011;63338;39.544;2.596;2023-07-13T09:58:34;13.10;;;1.85;;
74808;SDS011;63338;39.544;2.596;2023-07-13T10:01:07;5.70;;;1.55;;
74808;SDS011;63338;39.544;2.596;2023-07-13T10:03:53;9.38;;;1.50;;
74808;SDS011;63338;39.544;2.596;2023-07-13T10:06:35;9.68;;;1.65;;
74808;SDS011;63338;39.544;2.596;2023-07-13T10:09:09;9.98;;;2.40;;
74808;SDS011;63338;39.544;2.596;2023-07-13T10:11:37;9.07;;;2.00;;
74808;SDS011;63338;39.544;2.596;2023-07-13T10:14:18;8.20;;;1.80;;
74808;SDS011;63338;39.544;2.596;2023-07-13T10:16:52;7.40;;;1.60;;
74808;SDS011;63338;39.544;2.596;2023-07-13T10:19:31;10.98;;;1.67;;
74808;SDS011;63338;39.544;2.596;2023-07-13T10:22:20;11.35;;;2.03;;
74808;SDS011;63338;39.544;2.596;2023-07-13T10:25:00;9.38;;;1.92;;
74808;SDS011;63338;39.544;2.596;2023-07-13T10:27:32;8.05;;;1.65;;
74808;SDS011;63338;39.544;2.596;2023-07-13T10:33:49;9.60;;;1.77;;
74808;SDS011;63338;39.544;2.596;2023-07-13T10:39:02;7.93;;;1.50;;
74808;SDS011;63338;39.544;2.596;2023-07-13T10:41:41;8.82;;;1.88;;
74808;SDS011;63338;39.544;2.596;2023-07-13T10:44:33;10.95;;;1.90;;
74808;SDS011;63338;39.544;2.596;2023-07-13T10:47:04;9.27;;;1.73;;
74808;SDS011;63338;39.544;2.596;2023-07-13T10:49:34;11.50;;;1.77;;
74808;SDS011;63338;39.544;2.596;2023-07-13T10:52:04;8.93;;;1.65;;
74808;SDS011;63338;39.544;2.596;2023-07-13T10:54:32;10.40;;;1.73;;
74808;SDS011;63338;39.544;2.596;2023-07-13T10:57:20;8.57;;;1.65;;
74808;SDS011;63338;39.544;2.596;2023-07-13T11:02:59;11.02;;;1.90;;
74808;SDS011;63338;39.544;2.596;2023-07-13T11:05:31;8.00;;;1.40;;
74808;SDS011;63338;39.544;2.596;2023-07-13T11:08:03;13.20;;;1.77;;
74808;SDS011;63338;39.544;2.596;2023-07-13T11:10:55;7.20;;;1.60;;
74808;SDS011;63338;39.544;2.596;2023-07-13T11:28:04;7.10;;;1.48;;
74808;SDS011;63338;39.544;2.596;2023-07-13T11:30:42;11.80;;;1.80;;
74808;SDS011;63338;39.544;2.596;2023-07-13T11:36:14;7.32;;;1.52;;
74808;SDS011;63338;39.544;2.596;2023-07-13T11:38:43;16.95;;;1.60;;
74808;SDS011;63338;39.544;2.596;2023-07-13T11:41:19;9.20;;;1.40;;
74808;SDS011;63338;39.544;2.596;2023-07-13T11:44:12;7.93;;;1.27;;
74808;SDS011;63338;39.544;2.596;2023-07-13T11:46:45;13.75;;;1.70;;
74808;SDS011;63338;39.544;2.596;2023-07-13T11:49:31;9.63;;;1.40;;
74808;SDS011;63338;39.544;2.596;2023-07-13T11:52:04;7.13;;;1.23;;
74808;SDS011;63338;39.544;2.596;2023-07-13T11:54:43;6.10;;;1.35;;
74808;SDS011;63338;39.544;2.596;2023-07-13T12:00:11;8.35;;;1.30;;
74808;SDS011;63338;39.544;2.596;2023-07-13T12:02:42;10.18;;;1.30;;
74808;SDS011;63338;39.544;2.596;2023-07-13T12:05:15;9.57;;;1.60;;
74808;SDS011;63338;39.544;2.596;2023-07-13T12:07:57;9.88;;;1.38;;
74808;SDS011;63338;39.544;2.596;2023-07-13T12:10:27;8.50;;;1.65;;
74808;SDS011;63338;39.544;2.596;2023-07-13T12:12:57;5.90;;;1.30;;
74808;SDS011;63338;39.544;2.596;2023-07-13T12:15:37;7.97;;;1.20;;
74808;SDS011;63338;39.544;2.596;2023-07-13T12:18:17;7.15;;;1.52;;
74808;SDS011;63338;39.544;2.596;2023-07-13T12:20:55;6.43;;;1.30;;
74808;SDS011;63338;39.544;2.596;2023-07-13T12:23:48;5.72;;;1.58;;
74808;SDS011;63338;39.544;2.596;2023-07-13T12:26:23;10.15;;;1.70;;
74808;SDS011;63338;39.544;2.596;2023-07-13T12:28:53;11.40;;;1.65;;
74808;SDS011;63338;39.544;2.596;2023-07-13T12:34:07;11.55;;;1.67;;
74808;SDS011;63338;39.544;2.596;2023-07-13T12:36:40;7.60;;;1.40;;
74808;SDS011;63338;39.544;2.596;2023-07-13T12:39:28;11.55;;;1.80;;
74808;SDS011;63338;39.544;2.596;2023-07-13T12:42:31;6.78;;;1.35;;
74808;SDS011;63338;39.544;2.596;2023-07-13T12:47:43;7.65;;;1.85;;
74808;SDS011;63338;39.544;2.596;2023-07-13T12:50:19;10.00;;;1.88;;
74808;SDS011;63338;39.544;2.596;2023-07-13T12:53:03;8.15;;;1.60;;
74808;SDS011;63338;39.544;2.596;2023-07-13T12:55:47;11.73;;;1.73;;
74808;SDS011;63338;39.544;2.596;2023-07-13T13:00:54;8.55;;;1.70;;
74808;SDS011;63338;39.544;2.596;2023-07-13T13:08:34;6.38;;;1.40;;
74808;SDS011;63338;39.544;2.596;2023-07-13T13:11:02;7.88;;;1.40;;
74808;SDS011;63338;39.544;2.596;2023-07-13T13:13:35;9.43;;;1.70;;
74808;SDS011;63338;39.544;2.596;2023-07-13T13:16:04;8.75;;;1.38;;
74808;SDS011;63338;39.544;2.596;2023-07-13T13:18:46;8.07;;;1.30;;
74808;SDS011;63338;39.544;2.596;2023-07-13T13:21:12;12.48;;;1.42;;
74808;SDS011;63338;39.544;2.596;2023-07-13T13:23:38;6.93;;;1.33;;
74808;SDS011;63338;39.544;2.596;2023-07-13T13:26:10;7.47;;;1.60;;
74808;SDS011;63338;39.544;2.596;2023-07-13T13:28:37;5.30;;;1.30;;
74808;SDS011;63338;39.544;2.596;2023-07-13T13:31:04;6.30;;;1.13;;
74808;SDS011;63338;39.544;2.596;2023-07-13T13:33:30;7.05;;;1.67;;
74808;SDS011;63338;39.544;2.596;2023-07-13T13:35:56;9.18;;;1.25;;
74808;SDS011;63338;39.544;2.596;2023-07-13T13:38:24;5.60;;;1.40;;
74808;SDS011;63338;39.544;2.596;2023-07-13T13:40:55;7.50;;;1.65;;
74808;SDS011;63338;39.544;2.596;2023-07-13T13:43:22;9.00;;;1.35;;
74808;SDS011;63338;39.544;2.596;2023-07-13T13:45:52;8.40;;;1.70;;
74808;SDS011;63338;39.544;2.596;2023-07-13T13:48:40;9.18;;;1.73;;
74808;SDS011;63338;39.544;2.596;2023-07-13T13:51:25;7.55;;;1.60;;
74808;SDS011;63338;39.544;2.596;2023-07-13T13:53:51;7.78;;;1.50;;
74808;SDS011;63338;39.544;2.596;2023-07-13T13:56:19;8.75;;;1.50;;
74808;SDS011;63338;39.544;2.596;2023-07-13T13:58:45;7.35;;;1.48;;
74808;SDS011;63338;39.544;2.596;2023-07-13T14:01:16;6.00;;;1.40;;
74808;SDS011;63338;39.544;2.596;2023-07-13T14:03:56;7.68;;;1.52;;
74808;SDS011;63338;39.544;2.596;2023-07-13T14:06:24;9.77;;;1.90;;
74808;SDS011;63338;39.544;2.596;2023-07-13T14:08:50;7.55;;;1.30;;
74808;SDS011;63338;39.544;2.596;2023-07-13T14:11:17;8.82;;;1.33;;
74808;SDS011;63338;39.544;2.596;2023-07-13T14:13:55;8.13;;;1.30;;
74808;SDS011;63338;39.544;2.596;2023-07-13T14:16:31;11.68;;;1.23;;
74808;SDS011;63338;39.544;2.596;2023-07-13T14:18:59;7.10;;;1.40;;
74808;SDS011;63338;39.544;2.596;2023-07-13T14:21:26;7.22;;;1.10;;
74808;SDS011;63338;39.544;2.596;2023-07-13T14:23:54;6.50;;;1.42;;
74808;SDS011;63338;39.544;2.596;2023-07-13T14:26:22;7.53;;;1.38;;
74808;SDS011;63338;39.544;2.596;2023-07-13T14:28:53;5.40;;;1.40;;
74808;SDS011;63338;39.544;2.596;2023-07-13T14:31:21;10.48;;;1.60;;
74808;SDS011;63338;39.544;2.596;2023-07-13T14:33:48;5.82;;;1.00;;
74808;SDS011;63338;39.544;2.596;2023-07-13T14:38:53;6.85;;;1.58;;
74808;SDS011;63338;39.544;2.596;2023-07-13T14:41:19;7.68;;;1.52;;
74808;SDS011;63338;39.544;2.596;2023-07-13T14:43:49;7.40;;;1.40;;
74808;SDS011;63338;39.544;2.596;2023-07-13T14:49:05;6.15;;;1.40;;
74808;SDS011;63338;39.544;2.596;2023-07-13T14:51:51;8.20;;;1.40;;
74808;SDS011;63338;39.544;2.596;2023-07-13T14:54:17;9.10;;;1.50;;
74808;SDS011;63338;39.544;2.596;2023-07-13T14:56:43;6.43;;;1.33;;
74808;SDS011;63338;39.544;2.596;2023-07-13T14:59:09;11.00;;;1.90;;
74808;SDS011;63338;39.544;2.596;2023-07-13T15:01:37;6.38;;;1.50;;
74808;SDS011;63338;39.544;2.596;2023-07-13T15:04:05;11.95;;;1.52;;
74808;SDS011;63338;39.544;2.596;2023-07-13T15:06:52;9.35;;;1.52;;
74808;SDS011;63338;39.544;2.596;2023-07-13T15:09:19;9.35;;;1.75;;
74808;SDS011;63338;39.544;2.596;2023-07-13T15:11:52;7.60;;;1.45;;
74808;SDS011;63338;39.544;2.596;2023-07-13T15:14:19;7.90;;;1.60;;
74808;SDS011;63338;39.544;2.596;2023-07-13T15:16:49;5.85;;;1.10;;
74808;SDS011;63338;39.544;2.596;2023-07-13T15:19:19;6.32;;;1.02;;
74808;SDS011;63338;39.544;2.596;2023-07-13T15:21:49;11.65;;;1.48;;
74808;SDS011;63338;39.544;2.596;2023-07-13T15:24:17;7.85;;;1.20;;
74808;SDS011;63338;39.544;2.596;2023-07-13T15:26:43;6.88;;;1.30;;
74808;SDS011;63338;39.544;2.596;2023-07-13T15:29:11;12.35;;;1.20;;
74808;SDS011;63338;39.544;2.596;2023-07-13T15:31:38;7.82;;;1.23;;
74808;SDS011;63338;39.544;2.596;2023-07-13T15:34:51;11.27;;;1.38;;
74808;SDS011;63338;39.544;2.596;2023-07-13T15:38:04;18.10;;;10.57;;
74808;SDS011;63338;39.544;2.596;2023-07-13T15:43:51;5.32;;;2.55;;
74808;SDS011;63338;39.544;2.596;2023-07-13T15:46:19;14.68;;;3.13;;
74808;SDS011;63338;39.544;2.596;2023-07-13T15:48:47;10.05;;;2.17;;
74808;SDS011;63338;39.544;2.596;2023-07-13T15:51:27;5.82;;;2.08;;
74808;SDS011;63338;39.544;2.596;2023-07-13T15:53:59;7.18;;;1.92;;
74808;SDS011;63338;39.544;2.596;2023-07-13T15:56:29;4.78;;;1.73;;
74808;SDS011;63338;39.544;2.596;2023-07-13T15:58:59;5.25;;;1.63;;
74808;SDS011;63338;39.544;2.596;2023-07-13T16:01:26;7.05;;;2.13;;
74808;SDS011;63338;39.544;2.596;2023-07-13T16:03:52;6.78;;;1.48;;
74808;SDS011;63338;39.544;2.596;2023-07-13T16:06:19;7.30;;;1.40;;
74808;SDS011;63338;39.544;2.596;2023-07-13T16:08:55;4.72;;;1.20;;
74808;SDS011;63338;39.544;2.596;2023-07-13T16:11:22;10.90;;;1.45;;
74808;SDS011;63338;39.544;2.596;2023-07-13T16:13:53;4.38;;;1.20;;
74808;SDS011;63338;39.544;2.596;2023-07-13T16:16:28;4.93;;;1.20;;